Time;durP1;ratioP1;P1;durP2;ratioP2;P2;SDS_P1;SDS_P2;PMS_P1;PMS_P2;Temp;Humidity;BMP_temperature;BMP_pressure;BME280_temperature;BME280_humidity;BME280_pressure;Samples;Min_cycle;Max_cycle;Signal;HPM_P1;HPM_P2
2022/06/27 00:01:24;;;;;;;6.82;4.97;;;18.90;99.90;;;;;;6207778;23;20013;-75
2022/06/27 00:03:50;;;;;;;7.93;5.55;;;19.00;99.90;;;;;;6208601;23;20020;-75
2022/06/27 00:06:19;;;;;;;11.35;5.00;;;18.90;99.90;;;;;;6183010;23;20020;-74
2022/06/27 00:08:47;;;;;;;7.45;5.60;;;18.90;99.90;;;;;;6208617;23;20073;-74
2022/06/27 00:11:12;;;;;;;8.80;5.40;;;18.80;99.90;;;;;;6207621;23;20061;-75
2022/06/27 00:13:38;;;;;;;7.30;5.70;;;18.90;99.90;;;;;;6208270;23;20057;-74
2022/06/27 00:16:04;;;;;;;7.85;5.32;;;18.90;99.90;;;;;;6209938;23;20052;-75
2022/06/27 00:18:29;;;;;;;7.50;5.28;;;18.90;99.90;;;;;;6206850;23;20091;-75
2022/06/27 00:20:55;;;;;;;7.10;5.38;;;18.90;99.90;;;;;;6181698;23;20016;-75
2022/06/27 00:23:21;;;;;;;9.80;6.10;;;18.90;99.90;;;;;;6180287;23;20055;-75
2022/06/27 00:25:46;;;;;;;8.52;5.47;;;18.80;99.90;;;;;;6178831;23;20021;-75
2022/06/27 00:28:12;;;;;;;12.00;6.60;;;18.90;99.90;;;;;;6208006;23;20103;-75
2022/06/27 00:30:38;;;;;;;10.20;6.25;;;18.90;99.90;;;;;;6209436;23;20058;-75
2022/06/27 00:33:03;;;;;;;7.20;5.90;;;18.80;99.90;;;;;;6207768;23;20095;-75
2022/06/27 00:35:29;;;;;;;9.05;5.90;;;18.90;99.90;;;;;;6209164;23;20017;-75
2022/06/27 00:37:55;;;;;;;10.55;6.43;;;18.80;99.90;;;;;;6181887;23;20023;-76
2022/06/27 00:40:20;;;;;;;8.30;6.03;;;18.90;99.90;;;;;;6208304;23;20017;-76
2022/06/27 00:42:46;;;;;;;11.18;6.47;;;18.80;99.90;;;;;;6180685;23;20080;-76
2022/06/27 00:45:11;;;;;;;11.68;6.60;;;18.80;99.90;;;;;;6181020;23;20315;-76
2022/06/27 00:47:37;;;;;;;11.07;6.32;;;18.80;99.90;;;;;;6179898;23;20016;-75
2022/06/27 00:50:05;;;;;;;14.43;6.97;;;18.80;99.90;;;;;;6207320;23;20023;-76
2022/06/27 00:52:31;;;;;;;10.90;7.70;;;18.80;99.90;;;;;;6206235;23;20009;-75
2022/06/27 00:54:57;;;;;;;13.02;6.80;;;18.70;99.90;;;;;;6181737;23;20124;-75
2022/06/27 00:57:23;;;;;;;10.52;7.93;;;18.80;99.90;;;;;;6182559;23;20389;-76
2022/06/27 00:59:49;;;;;;;11.55;7.63;;;18.70;99.90;;;;;;6179894;23;20025;-75
2022/06/27 01:02:15;;;;;;;9.23;6.88;;;18.70;99.90;;;;;;6207967;23;20353;-76
2022/06/27 01:04:41;;;;;;;13.90;7.25;;;18.70;99.90;;;;;;6206376;23;20021;-75
2022/06/27 01:07:08;;;;;;;9.32;6.60;;;18.70;99.90;;;;;;6208153;23;20048;-75
2022/06/27 01:09:34;;;;;;;7.95;6.53;;;18.60;99.90;;;;;;6180092;23;20020;-75
2022/06/27 01:12:01;;;;;;;11.05;6.65;;;18.60;99.90;;;;;;6207404;23;20438;-76
2022/06/27 01:14:26;;;;;;;9.25;6.60;;;18.60;99.90;;;;;;6207079;23;20079;-76
2022/06/27 01:16:52;;;;;;;9.73;5.82;;;18.60;99.90;;;;;;6180405;23;20021;-76
2022/06/27 01:19:18;;;;;;;7.10;5.47;;;18.60;99.90;;;;;;6208020;23;20098;-75
2022/06/27 01:21:52;;;;;;;9.85;6.95;;;18.50;99.90;;;;;;6205715;23;20017;-76
2022/06/27 01:24:19;;;;;;;8.65;6.53;;;18.60;99.90;;;;;;6182932;23;20551;-76
2022/06/27 01:26:46;;;;;;;9.70;6.82;;;18.60;99.90;;;;;;6209447;23;20361;-76
2022/06/27 01:29:12;;;;;;;9.00;7.15;;;18.60;99.90;;;;;;6182293;23;20020;-76
2022/06/27 01:31:38;;;;;;;11.43;7.05;;;18.60;99.90;;;;;;6183742;23;20460;-76
2022/06/27 01:34:06;;;;;;;15.23;8.07;;;18.60;99.90;;;;;;6210906;23;20021;-76
2022/06/27 01:36:41;;;;;;;10.95;8.23;;;18.60;99.90;;;;;;6209644;23;20445;-76
2022/06/27 01:39:09;;;;;;;7.90;6.88;;;18.50;99.90;;;;;;6209947;23;20082;-76
2022/06/27 01:41:35;;;;;;;11.27;7.18;;;18.50;99.90;;;;;;6209273;23;20020;-75
2022/06/27 01:44:02;;;;;;;9.07;6.97;;;18.50;99.90;;;;;;6208050;23;20146;-75
2022/06/27 01:46:42;;;;;;;11.93;7.30;;;18.40;99.90;;;;;;6211003;23;20046;-76
2022/06/27 01:49:08;;;;;;;8.50;6.50;;;18.40;99.90;;;;;;6209423;23;20499;-75
2022/06/27 01:51:35;;;;;;;7.88;6.57;;;18.40;99.90;;;;;;6184759;23;20017;-75
2022/06/27 01:54:01;;;;;;;9.38;6.82;;;18.40;99.90;;;;;;6182876;23;20524;-76
2022/06/27 01:56:28;;;;;;;10.60;7.82;;;18.40;99.90;;;;;;6181876;23;20024;-76
2022/06/27 01:58:57;;;;;;;15.27;7.50;;;18.40;99.90;;;;;;6209018;23;20016;-76
2022/06/27 02:01:24;;;;;;;12.48;6.80;;;18.40;99.90;;;;;;6183383;23;20103;-76
2022/06/27 02:03:50;;;;;;;8.55;6.75;;;18.40;99.90;;;;;;6208775;23;20052;-75
2022/06/27 02:06:16;;;;;;;12.18;7.60;;;18.40;99.90;;;;;;6181515;23;20020;-76
2022/06/27 02:08:46;;;;;;;11.57;8.27;;;18.40;99.90;;;;;;6210131;23;20023;-76
2022/06/27 02:11:15;;;;;;;9.77;7.18;;;18.40;99.90;;;;;;6209524;23;20063;-76
2022/06/27 02:13:42;;;;;;;9.43;7.25;;;18.40;99.90;;;;;;6182667;23;20529;-75
2022/06/27 02:16:17;;;;;;;10.13;8.05;;;18.30;99.90;;;;;;6209632;23;20028;-76
2022/06/27 02:18:43;;;;;;;10.13;8.85;;;18.40;99.90;;;;;;6180223;23;20441;-75
2022/06/27 02:21:16;;;;;;;9.73;7.43;;;18.30;99.90;;;;;;6180433;23;20044;-75
2022/06/27 02:23:42;;;;;;;10.45;8.65;;;18.30;99.90;;;;;;6209070;23;20013;-75
2022/06/27 02:26:09;;;;;;;10.43;7.45;;;18.30;99.90;;;;;;6209169;23;20019;-76
2022/06/27 02:28:36;;;;;;;11.85;8.25;;;18.20;99.90;;;;;;6181626;23;20110;-75
2022/06/27 02:31:02;;;;;;;12.25;8.40;;;18.20;99.90;;;;;;6180567;23;20045;-76
2022/06/27 02:33:43;;;;;;;9.90;8.43;;;18.20;99.90;;;;;;6210482;23;20337;-75
2022/06/27 02:36:13;;;;;;;10.52;8.25;;;18.30;99.90;;;;;;6181108;23;20032;-76
2022/06/27 02:38:40;;;;;;;12.60;8.40;;;18.20;99.90;;;;;;6208099;23;20099;-76
2022/06/27 02:41:09;;;;;;;8.52;7.32;;;18.30;99.90;;;;;;6182730;23;20019;-75
2022/06/27 02:43:38;;;;;;;8.85;7.43;;;18.20;99.90;;;;;;6182169;23;20029;-76
2022/06/27 02:46:05;;;;;;;8.10;7.10;;;18.30;99.90;;;;;;6181256;23;20016;-76
2022/06/27 02:48:32;;;;;;;9.32;7.82;;;18.20;99.90;;;;;;6182476;23;20016;-76
2022/06/27 02:51:04;;;;;;;11.65;7.13;;;18.20;99.90;;;;;;6210425;23;20017;-76
2022/06/27 02:53:40;;;;;;;13.10;8.43;;;18.30;99.90;;;;;;6180781;23;20023;-76
2022/06/27 02:56:10;;;;;;;16.80;8.70;;;18.30;99.90;;;;;;6209908;23;20052;-76
2022/06/27 02:58:49;;;;;;;12.10;8.80;;;18.30;99.90;;;;;;6181272;23;20024;-76
2022/06/27 03:01:18;;;;;;;11.60;7.97;;;18.30;99.90;;;;;;6181295;23;20434;-76
2022/06/27 03:03:47;;;;;;;11.13;8.85;;;18.30;99.90;;;;;;6209790;23;20490;-76
2022/06/27 03:06:13;;;;;;;13.77;8.70;;;18.30;99.90;;;;;;6208143;23;20026;-75
2022/06/27 03:08:45;;;;;;;11.93;8.98;;;18.30;99.90;;;;;;6208929;23;20430;-76
2022/06/27 03:11:13;;;;;;;11.55;9.05;;;18.20;99.90;;;;;;6208821;23;20323;-75
2022/06/27 03:13:39;;;;;;;12.85;10.05;;;18.30;99.90;;;;;;6207281;23;20008;-75
2022/06/27 03:16:05;;;;;;;13.00;9.35;;;18.20;99.90;;;;;;6180564;23;20099;-75
2022/06/27 03:18:30;;;;;;;13.32;9.15;;;18.20;99.90;;;;;;6178874;23;20020;-76
2022/06/27 03:20:56;;;;;;;13.35;9.90;;;18.20;99.90;;;;;;6181023;23;20500;-75
2022/06/27 03:23:22;;;;;;;12.13;10.32;;;18.30;99.90;;;;;;6207481;23;20078;-76
2022/06/27 03:25:48;;;;;;;14.18;10.02;;;18.20;99.90;;;;;;6182272;23;20103;-75
2022/06/27 03:28:13;;;;;;;14.07;10.10;;;18.20;99.90;;;;;;6194423;23;20013;-76
2022/06/27 03:30:39;;;;;;;14.43;10.52;;;18.20;99.90;;;;;;6181857;23;20314;-76
2022/06/27 03:33:05;;;;;;;15.45;10.60;;;18.20;99.90;;;;;;6209155;23;20016;-76
2022/06/27 03:35:31;;;;;;;15.18;10.98;;;18.20;99.90;;;;;;6208459;23;20070;-76
2022/06/27 03:37:56;;;;;;;18.48;11.27;;;18.20;99.90;;;;;;6181362;23;20107;-75
2022/06/27 03:40:22;;;;;;;14.27;10.95;;;18.20;99.90;;;;;;6209625;23;20096;-76
2022/06/27 03:42:48;;;;;;;16.00;11.48;;;18.10;99.90;;;;;;6180434;23;20392;-75
2022/06/27 03:45:14;;;;;;;16.95;11.43;;;18.20;99.90;;;;;;6181763;23;20051;-75
2022/06/27 03:47:53;;;;;;;17.67;11.80;;;18.20;99.90;;;;;;6207624;23;20013;-76
2022/06/27 03:50:20;;;;;;;14.15;11.98;;;18.20;99.90;;;;;;6209900;23;20013;-76
2022/06/27 03:52:46;;;;;;;13.32;11.23;;;18.10;99.90;;;;;;6181561;23;20016;-76
2022/06/27 03:55:13;;;;;;;12.23;10.70;;;18.20;99.90;;;;;;6208470;23;20020;-75
2022/06/27 03:57:48;;;;;;;14.73;10.60;;;18.20;99.90;;;;;;6180835;23;20035;-75
2022/06/27 04:00:15;;;;;;;11.00;9.82;;;18.20;99.90;;;;;;6207553;23;20024;-75
2022/06/27 04:02:41;;;;;;;10.27;9.18;;;18.20;99.90;;;;;;6206635;23;20107;-75
2022/06/27 04:05:07;;;;;;;11.88;10.07;;;18.20;99.90;;;;;;6181906;23;20044;-75
2022/06/27 04:07:32;;;;;;;13.40;9.25;;;18.20;99.90;;;;;;6206395;23;20096;-75
2022/06/27 04:09:58;;;;;;;10.35;9.15;;;18.30;99.90;;;;;;6180254;23;20056;-75
2022/06/27 04:12:24;;;;;;;13.30;9.57;;;18.20;99.90;;;;;;6181305;23;20044;-75
2022/06/27 04:14:50;;;;;;;14.65;9.30;;;18.20;99.90;;;;;;6207587;23;20139;-75
2022/06/27 04:17:16;;;;;;;12.10;8.35;;;18.20;99.90;;;;;;6181576;23;20051;-76
2022/06/27 04:19:42;;;;;;;10.30;8.18;;;18.20;99.90;;;;;;6180157;23;20410;-75
2022/06/27 04:22:10;;;;;;;9.13;7.60;;;18.20;99.90;;;;;;6207195;23;20160;-75
2022/06/27 04:24:37;;;;;;;8.10;7.18;;;18.20;99.90;;;;;;6178615;23;20024;-75
2022/06/27 04:27:03;;;;;;;8.38;7.57;;;18.10;99.90;;;;;;6180242;23;20271;-75
2022/06/27 04:29:30;;;;;;;7.22;6.00;;;18.20;99.90;;;;;;6206060;23;20123;-75
2022/06/27 04:31:56;;;;;;;7.68;6.28;;;18.20;99.90;;;;;;6178829;23;20035;-76
2022/06/27 04:34:22;;;;;;;7.68;5.93;;;18.30;99.90;;;;;;6181257;23;20044;-75
2022/06/27 04:36:48;;;;;;;7.68;5.30;;;18.20;99.90;;;;;;6205485;23;20070;-76
2022/06/27 04:39:17;;;;;;;7.47;5.93;;;18.20;99.90;;;;;;6179541;23;20016;-75
2022/06/27 04:41:44;;;;;;;8.00;6.15;;;18.30;99.90;;;;;;6208016;23;20475;-75
2022/06/27 04:44:11;;;;;;;9.20;4.95;;;18.30;99.90;;;;;;6181167;23;20016;-75
2022/06/27 04:46:37;;;;;;;8.45;5.85;;;18.20;99.90;;;;;;6180708;23;20012;-75
2022/06/27 04:49:03;;;;;;;7.03;5.20;;;18.30;99.90;;;;;;6181024;23;20430;-76
2022/06/27 04:51:29;;;;;;;5.60;5.07;;;18.30;99.90;;;;;;6207893;23;20043;-75
2022/06/27 04:53:56;;;;;;;7.55;5.35;;;18.30;99.90;;;;;;6180628;23;20488;-75
2022/06/27 04:56:22;;;;;;;6.55;5.30;;;18.30;99.90;;;;;;6209557;23;20017;-75
2022/06/27 04:58:48;;;;;;;6.35;4.80;;;18.30;99.90;;;;;;6179785;23;20020;-76
2022/06/27 05:01:13;;;;;;;6.63;4.50;;;18.30;99.90;;;;;;6209856;23;20055;-78
2022/06/27 05:03:39;;;;;;;6.38;4.82;;;18.30;99.90;;;;;;6182730;23;20025;-75
2022/06/27 05:06:05;;;;;;;6.57;5.13;;;18.30;99.90;;;;;;6209479;23;20020;-76
2022/06/27 05:08:31;;;;;;;5.28;3.85;;;18.30;99.90;;;;;;6209344;23;20021;-75
2022/06/27 05:10:57;;;;;;;5.65;3.75;;;18.30;99.90;;;;;;6182809;23;20020;-75
2022/06/27 05:13:23;;;;;;;5.20;4.10;;;18.40;99.90;;;;;;6182078;23;20017;-75
2022/06/27 05:15:49;;;;;;;5.32;4.10;;;18.40;99.90;;;;;;6210726;23;20078;-75
2022/06/27 05:18:15;;;;;;;4.40;3.58;;;18.40;99.90;;;;;;6209845;23;20024;-75
2022/06/27 05:20:42;;;;;;;4.25;3.40;;;18.40;99.90;;;;;;6182165;23;20016;-75
2022/06/27 05:23:09;;;;;;;4.35;3.25;;;18.40;99.90;;;;;;6182507;23;20023;-75
2022/06/27 05:25:36;;;;;;;5.20;3.60;;;18.40;99.90;;;;;;6210148;23;20029;-75
2022/06/27 05:28:03;;;;;;;4.15;3.00;;;18.50;99.90;;;;;;6181179;23;20054;-75
2022/06/27 05:30:30;;;;;;;8.18;3.20;;;18.40;99.90;;;;;;6182791;23;20108;-75
2022/06/27 05:32:56;;;;;;;5.20;2.83;;;18.50;99.90;;;;;;6182849;23;20325;-76
2022/06/27 05:35:22;;;;;;;4.13;2.80;;;18.50;99.90;;;;;;6208522;23;20017;-75
2022/06/27 05:37:49;;;;;;;5.88;2.97;;;18.50;99.90;;;;;;6207307;23;20020;-76
2022/06/27 05:40:16;;;;;;;4.40;2.50;;;18.50;99.90;;;;;;6208663;23;20075;-76
2022/06/27 05:42:41;;;;;;;3.50;2.63;;;18.40;99.90;;;;;;6208220;23;20111;-75
2022/06/27 05:45:08;;;;;;;4.65;2.85;;;18.40;99.90;;;;;;6209555;23;20056;-76
2022/06/27 05:47:35;;;;;;;3.80;2.45;;;18.40;99.90;;;;;;6206742;23;20329;-75
2022/06/27 05:50:03;;;;;;;3.97;2.20;;;18.40;99.90;;;;;;6182707;23;20032;-75
2022/06/27 05:52:29;;;;;;;2.40;1.92;;;18.30;99.90;;;;;;6183346;23;20028;-75
2022/06/27 05:54:55;;;;;;;2.88;2.17;;;18.30;99.90;;;;;;6209342;23;20024;-75
2022/06/27 05:57:24;;;;;;;4.55;1.98;;;18.30;99.90;;;;;;6183891;23;20017;-75
2022/06/27 05:59:51;;;;;;;4.18;2.45;;;18.30;99.90;;;;;;6180737;23;20119;-75
2022/06/27 06:02:16;;;;;;;4.72;1.92;;;18.30;99.90;;;;;;6208496;23;20059;-76
2022/06/27 06:04:43;;;;;;;4.00;2.38;;;18.40;99.90;;;;;;6181467;23;20333;-75
2022/06/27 06:07:09;;;;;;;5.93;2.50;;;18.40;99.90;;;;;;6182169;23;20032;-75
2022/06/27 06:09:35;;;;;;;3.63;2.38;;;18.50;99.90;;;;;;6206810;23;20017;-75
2022/06/27 06:12:00;;;;;;;6.78;2.45;;;18.50;99.90;;;;;;6209936;23;20054;-76
2022/06/27 06:14:28;;;;;;;4.03;2.35;;;18.60;99.90;;;;;;6210111;23;20044;-75
2022/06/27 06:16:55;;;;;;;3.45;1.90;;;18.60;99.90;;;;;;6181988;23;20020;-75
2022/06/27 06:19:21;;;;;;;5.32;2.22;;;18.60;99.90;;;;;;6183737;23;20013;-75
2022/06/27 06:21:46;;;;;;;4.15;2.00;;;18.60;99.90;;;;;;6211014;23;20026;-76
2022/06/27 06:24:13;;;;;;;4.53;2.08;;;18.60;99.90;;;;;;6209302;23;20398;-75
2022/06/27 06:26:39;;;;;;;3.42;2.10;;;18.60;99.90;;;;;;6209703;23;20017;-76
2022/06/27 06:29:15;;;;;;;5.05;2.53;;;18.60;99.90;;;;;;6209112;23;20099;-76
2022/06/27 06:31:43;;;;;;;3.60;2.35;;;18.50;99.90;;;;;;6209536;23;20024;-76
2022/06/27 06:34:10;;;;;;;4.68;2.40;;;18.50;99.90;;;;;;6183192;23;20370;-76
2022/06/27 06:36:37;;;;;;;7.95;2.83;;;18.60;99.90;;;;;;6209229;23;20889;-76
2022/06/27 06:39:03;;;;;;;3.45;2.40;;;18.60;99.90;;;;;;6180324;23;20560;-76
2022/06/27 06:41:29;;;;;;;6.15;2.33;;;18.50;99.90;;;;;;6209869;23;20518;-76
2022/06/27 06:43:54;;;;;;;4.32;2.60;;;18.60;99.90;;;;;;6209085;23;20017;-76
2022/06/27 06:46:20;;;;;;;9.85;2.75;;;18.50;99.90;;;;;;6210792;23;20020;-77
2022/06/27 06:48:46;;;;;;;3.90;2.80;;;18.50;99.90;;;;;;6208443;23;20063;-77
2022/06/27 06:51:15;;;;;;;6.68;3.00;;;18.50;99.90;;;;;;6181753;23;20448;-76
2022/06/27 06:53:41;;;;;;;3.65;2.35;;;18.50;99.90;;;;;;6208765;23;20020;-76
2022/06/27 06:56:07;;;;;;;5.47;2.58;;;18.60;99.90;;;;;;6209132;23;20054;-75
2022/06/27 06:58:34;;;;;;;4.97;2.88;;;18.60;99.90;;;;;;6207234;23;20156;-76
2022/06/27 07:01:01;;;;;;;5.10;2.80;;;18.60;99.90;;;;;;6209234;23;20323;-76
2022/06/27 07:03:27;;;;;;;3.92;2.70;;;18.60;99.90;;;;;;6182399;23;20112;-76
2022/06/27 07:05:53;;;;;;;4.22;2.88;;;18.60;99.90;;;;;;6180515;23;20327;-76
2022/06/27 07:08:19;;;;;;;4.40;2.38;;;18.60;99.90;;;;;;6209438;23;20103;-76
2022/06/27 07:10:44;;;;;;;4.30;2.72;;;18.60;99.90;;;;;;6182559;23;20370;-77
2022/06/27 07:13:10;;;;;;;4.53;2.85;;;18.60;99.90;;;;;;6179845;23;20027;-76
2022/06/27 07:15:37;;;;;;;3.63;2.65;;;18.60;99.90;;;;;;6209892;23;20044;-76
2022/06/27 07:18:04;;;;;;;3.45;2.95;;;18.60;99.90;;;;;;6179537;23;20035;-76
2022/06/27 07:20:32;;;;;;;7.07;3.00;;;18.50;99.90;;;;;;6181577;23;20020;-76
2022/06/27 07:22:58;;;;;;;5.78;2.80;;;18.60;99.90;;;;;;6179566;23;20105;-76
2022/06/27 07:25:25;;;;;;;4.75;3.05;;;18.60;99.90;;;;;;6207198;23;20665;-78
2022/06/27 07:27:51;;;;;;;4.43;2.40;;;18.60;99.90;;;;;;6179918;23;20445;-76
2022/06/27 07:30:19;;;;;;;8.27;3.17;;;18.60;99.90;;;;;;6182251;23;20123;-77
2022/06/27 07:32:45;;;;;;;4.13;2.60;;;18.60;99.90;;;;;;6206510;23;20281;-76
2022/06/27 07:35:13;;;;;;;2.95;2.50;;;18.60;99.90;;;;;;6206748;23;20043;-76
2022/06/27 07:37:49;;;;;;;3.78;2.67;;;18.60;99.90;;;;;;6175999;23;20386;-76
2022/06/27 07:40:20;;;;;;;4.95;2.60;;;18.60;99.90;;;;;;6207091;23;20052;-77
2022/06/27 07:42:48;;;;;;;3.47;2.67;;;18.60;99.90;;;;;;6178457;23;20024;-76
2022/06/27 07:45:16;;;;;;;7.32;3.40;;;18.60;99.90;;;;;;6180290;23;20012;-77
2022/06/27 07:47:46;;;;;;;7.57;2.90;;;18.60;99.90;;;;;;6206537;23;20043;-76
2022/06/27 07:50:36;;;;;;;4.10;2.90;;;18.60;99.90;;;;;;6210649;23;20091;-76
2022/06/27 07:53:11;;;;;;;5.38;3.70;;;18.60;99.90;;;;;;6208786;23;20514;-76
2022/06/27 07:55:49;;;;;;;4.68;3.05;;;18.60;99.90;;;;;;6181288;23;20028;-76
2022/06/27 07:58:17;;;;;;;4.15;2.60;;;18.50;99.90;;;;;;6179411;23;20017;-76
2022/06/27 08:00:48;;;;;;;5.35;3.45;;;18.50;99.90;;;;;;6180848;23;20020;-76
2022/06/27 08:06:00;;;;;;;3.60;2.80;;;18.50;99.90;;;;;;6209072;23;20025;-76
2022/06/27 08:08:26;;;;;;;6.38;3.78;;;18.50;99.90;;;;;;6207219;23;20052;-76
2022/06/27 08:10:53;;;;;;;4.38;3.20;;;18.50;99.90;;;;;;6210116;23;20012;-76
2022/06/27 08:13:19;;;;;;;4.57;3.05;;;18.60;99.90;;;;;;6208541;23;20055;-76
2022/06/27 08:15:47;;;;;;;4.22;3.30;;;18.60;99.90;;;;;;6180703;23;20318;-77
2022/06/27 08:18:16;;;;;;;5.00;2.80;;;18.60;99.90;;;;;;6180465;23;20020;-76
2022/06/27 08:20:42;;;;;;;5.70;3.55;;;18.70;99.90;;;;;;6208338;23;20016;-77
2022/06/27 08:23:09;;;;;;;3.97;3.50;;;18.70;99.90;;;;;;6178648;23;20079;-76
2022/06/27 08:25:35;;;;;;;4.22;3.13;;;18.80;99.90;;;;;;6208540;23;20052;-76
2022/06/27 08:28:01;;;;;;;3.92;3.05;;;18.70;99.90;;;;;;6207138;23;20465;-76
2022/06/27 08:30:27;;;;;;;3.97;3.47;;;18.70;99.90;;;;;;6205231;23;20031;-76
2022/06/27 08:32:59;;;;;;;3.53;3.05;;;18.70;99.90;;;;;;6204798;23;20070;-77
2022/06/27 08:35:25;;;;;;;4.70;3.50;;;18.80;99.90;;;;;;6178251;23;20017;-77
2022/06/27 08:37:52;;;;;;;9.02;3.55;;;18.80;99.90;;;;;;6206251;23;20042;-77
2022/06/27 08:40:19;;;;;;;4.72;3.00;;;18.80;99.90;;;;;;6209932;23;20016;-77
2022/06/27 08:42:45;;;;;;;5.25;3.45;;;18.90;99.90;;;;;;6179655;23;20071;-77
2022/06/27 08:45:17;;;;;;;6.32;3.53;;;19.00;99.90;;;;;;6207405;23;20027;-77
2022/06/27 08:47:43;;;;;;;6.45;3.10;;;19.00;99.90;;;;;;6181570;23;20016;-77
2022/06/27 08:50:11;;;;;;;4.32;3.25;;;19.00;99.90;;;;;;6208998;23;20020;-76
2022/06/27 08:52:39;;;;;;;4.75;2.70;;;19.00;99.90;;;;;;6179784;23;20480;-77
2022/06/27 08:55:09;;;;;;;6.38;4.95;;;19.10;99.90;;;;;;6208802;23;20087;-76
2022/06/27 08:57:36;;;;;;;5.88;4.40;;;19.10;99.90;;;;;;6180271;23;20139;-76
2022/06/27 09:00:06;;;;;;;5.38;4.68;;;19.00;99.90;;;;;;6209168;23;20047;-76
2022/06/27 09:02:41;;;;;;;6.20;4.82;;;19.10;99.90;;;;;;6180426;23;20028;-76
2022/06/27 09:05:18;;;;;;;7.68;5.10;;;19.00;99.90;;;;;;6180540;23;20368;-76
2022/06/27 09:07:47;;;;;;;6.45;4.25;;;19.00;99.90;;;;;;6179614;23;20092;-76
2022/06/27 09:10:29;;;;;;;5.30;4.53;;;19.10;99.90;;;;;;6209836;23;20031;-77
2022/06/27 09:13:00;;;;;;;5.38;4.38;;;19.10;99.90;;;;;;6179540;23;20504;-76
2022/06/27 09:15:46;;;;;;;8.95;5.28;;;19.10;99.90;;;;;;6182143;23;20526;-76
2022/06/27 09:18:15;;;;;;;7.45;5.15;;;19.20;99.90;;;;;;6206245;23;20378;-77
2022/06/27 09:20:53;;;;;;;4.97;4.47;;;19.20;99.90;;;;;;6181408;23;20044;-76
2022/06/27 09:23:26;;;;;;;5.07;4.18;;;19.20;99.90;;;;;;6180997;23;20044;-77
2022/06/27 09:26:09;;;;;;;4.78;4.03;;;19.30;99.90;;;;;;6207981;23;20040;-77
2022/06/27 09:28:56;;;;;;;6.53;3.97;;;19.30;99.90;;;;;;6180176;23;20098;-77
2022/06/27 09:31:28;;;;;;;6.70;3.97;;;19.30;99.90;;;;;;6180365;23;20504;-77
2022/06/27 09:34:14;;;;;;;7.20;3.97;;;19.40;99.90;;;;;;6206570;23;20009;-77
2022/06/27 09:36:46;;;;;;;4.78;3.30;;;19.40;99.90;;;;;;6207811;23;20017;-77
2022/06/27 09:39:17;;;;;;;4.35;3.92;;;19.40;99.90;;;;;;6207772;23;20302;-76
2022/06/27 09:41:45;;;;;;;6.37;3.30;;;19.40;99.90;;;;;;6180210;23;20090;-77
2022/06/27 09:44:15;;;;;;;6.00;3.42;;;19.40;99.90;;;;;;6181040;23;20014;-76
2022/06/27 09:46:50;;;;;;;3.97;3.25;;;19.40;99.90;;;;;;6208372;23;20379;-76
2022/06/27 09:49:15;;;;;;;6.18;2.88;;;19.30;99.90;;;;;;6183011;23;20016;-77
2022/06/27 09:51:42;;;;;;;4.13;3.30;;;19.30;99.90;;;;;;6210742;23;20401;-78
2022/06/27 09:54:09;;;;;;;3.40;2.65;;;19.30;99.90;;;;;;6209089;23;20056;-77
2022/06/27 09:56:41;;;;;;;3.88;3.15;;;19.30;99.90;;;;;;6209082;23;20020;-76
2022/06/27 09:59:08;;;;;;;;;;;19.30;99.90;;;;;;6209579;23;20505;-77
2022/06/27 10:01:35;;;;;;;3.90;3.15;;;19.30;99.90;;;;;;6182020;23;19981;-77
2022/06/27 10:04:02;;;;;;;5.70;3.33;;;19.30;99.90;;;;;;6209510;23;20472;-77
2022/06/27 10:06:29;;;;;;;7.78;3.40;;;19.40;99.90;;;;;;6208623;23;20381;-76
2022/06/27 10:08:55;;;;;;;4.47;2.90;;;19.40;99.90;;;;;;6209005;23;20063;-76
2022/06/27 10:11:21;;;;;;;7.05;3.28;;;19.40;99.90;;;;;;6209119;23;20017;-76
2022/06/27 10:14:14;;;;;;;4.45;3.47;;;19.40;99.90;;;;;;6182076;23;20066;-77
2022/06/27 10:16:54;;;;;;;5.22;3.22;;;19.50;99.90;;;;;;6208213;23;20371;-76
2022/06/27 10:19:22;;;;;;;8.40;3.47;;;19.50;99.90;;;;;;6181692;23;20091;-76
2022/06/27 10:21:49;;;;;;;5.82;3.42;;;19.50;99.90;;;;;;6182563;23;20476;-77
2022/06/27 10:24:24;;;;;;;6.65;3.92;;;19.50;99.90;;;;;;6182867;23;20025;-76
2022/06/27 10:27:28;;;;;;;5.05;3.38;;;19.50;99.90;;;;;;6209037;23;20310;-76
2022/06/27 10:29:53;;;;;;;5.53;3.90;;;19.50;99.90;;;;;;6207244;23;20027;-77
2022/06/27 10:32:41;;;;;;;8.52;4.50;;;19.50;99.90;;;;;;6210315;23;20013;-77
2022/06/27 10:35:11;;;;;;;5.95;4.30;;;19.60;99.90;;;;;;6208962;23;20267;-77
2022/06/27 10:37:39;;;;;;;7.30;4.30;;;19.50;99.90;;;;;;6180202;23;20021;-76
2022/06/27 10:40:20;;;;;;;6.65;3.88;;;19.50;99.90;;;;;;6209721;23;20029;-76
2022/06/27 10:42:54;;;;;;;9.93;4.20;;;19.50;99.90;;;;;;6208929;23;20098;-76
2022/06/27 10:45:19;;;;;;;6.18;3.63;;;19.50;99.90;;;;;;6209792;23;20023;-76
2022/06/27 10:47:45;;;;;;;5.18;3.80;;;19.60;99.90;;;;;;6209353;23;20092;-76
2022/06/27 10:50:15;;;;;;;5.88;3.97;;;19.70;99.90;;;;;;6209326;23;20031;-77
2022/06/27 10:52:41;;;;;;;9.07;3.85;;;19.70;99.90;;;;;;6182118;23;20016;-76
2022/06/27 10:55:29;;;;;;;5.15;3.90;;;19.60;99.90;;;;;;6210409;23;20027;-76
2022/06/27 10:57:56;;;;;;;5.82;4.05;;;19.60;99.90;;;;;;6181277;23;20469;-75
2022/06/27 11:00:39;;;;;;;4.88;3.92;;;19.60;99.90;;;;;;6182222;23;20023;-77
2022/06/27 11:03:05;;;;;;;4.43;3.83;;;19.60;99.90;;;;;;6210655;23;20099;-76
2022/06/27 11:06:04;;;;;;;7.82;4.35;;;19.70;99.90;;;;;;6207200;23;20118;-75
2022/06/27 11:08:35;;;;;;;4.63;3.25;;;19.70;99.90;;;;;;6205450;23;20031;-75
2022/06/27 11:11:01;;;;;;;7.30;4.03;;;19.70;99.90;;;;;;6207889;23;20315;-77
2022/06/27 11:13:36;;;;;;;4.50;3.80;;;19.70;99.90;;;;;;6207025;23;20017;-76
2022/06/27 11:16:03;;;;;;;4.70;3.80;;;19.70;99.90;;;;;;6179854;23;20020;-75
2022/06/27 11:18:43;;;;;;;5.88;3.75;;;19.70;99.90;;;;;;6208255;23;20017;-75
2022/06/27 11:21:13;;;;;;;6.15;3.58;;;19.70;99.90;;;;;;6210213;23;20009;-75
2022/06/27 11:23:54;;;;;;;6.33;3.93;;;19.70;99.90;;;;;;6204511;23;20453;-75
2022/06/27 11:26:21;;;;;;;7.57;4.00;;;19.70;99.90;;;;;;6178988;23;20260;-75
2022/06/27 11:34:16;;;;;;;5.72;3.63;;;19.70;99.90;;;;;;6177078;23;20020;-74
2022/06/27 11:36:42;;;;;;;4.50;3.58;;;19.80;99.90;;;;;;6205203;23;20020;-75
2022/06/27 11:39:08;;;;;;;6.82;4.03;;;19.90;99.90;;;;;;6204621;23;20016;-75
2022/06/27 11:41:38;;;;;;;3.97;3.40;;;19.80;99.90;;;;;;6207170;23;20023;-75
2022/06/27 11:44:07;;;;;;;5.97;3.50;;;19.80;99.90;;;;;;6181050;23;20104;-74
2022/06/27 11:46:42;;;;;;;5.30;3.80;;;19.70;99.90;;;;;;6180012;23;20031;-75
2022/06/27 11:49:32;;;;;;;7.15;4.43;;;19.80;99.90;;;;;;6182388;23;20283;-74
2022/06/27 11:52:00;;;;;;;7.97;4.68;;;19.80;99.90;;;;;;6182159;23;20012;-74
2022/06/27 11:54:39;;;;;;;7.28;4.80;;;19.70;99.90;;;;;;6208262;23;20023;-74
2022/06/27 11:57:21;;;;;;;27.50;5.82;;;19.80;99.90;;;;;;6182373;23;20075;-74
2022/06/27 11:59:49;;;;;;;8.15;5.13;;;19.80;99.90;;;;;;6208147;23;20016;-74
2022/06/27 12:02:28;;;;;;;12.55;5.00;;;19.80;99.90;;;;;;6208081;23;20424;-76
2022/06/27 12:05:09;;;;;;;7.97;5.65;;;19.90;99.90;;;;;;6182371;23;20144;-74
2022/06/27 12:08:03;;;;;;;5.35;4.43;;;19.90;99.90;;;;;;6181464;23;20532;-74
2022/06/27 12:11:17;;;;;;;8.23;5.38;;;19.90;99.90;;;;;;6210004;23;20452;-73
2022/06/27 12:13:34;;;;;;;6.53;5.82;;;19.90;99.90;;;;;;6205897;23;20135;-73
2022/06/27 12:16:01;;;;;;;8.00;5.95;;;19.90;99.90;;;;;;6208478;23;20082;-74
2022/06/27 12:18:38;;;;;;;10.02;5.90;;;19.90;99.90;;;;;;6182842;23;20013;-74
2022/06/27 12:21:04;;;;;;;7.28;5.18;;;20.00;99.90;;;;;;6209056;23;20318;-74
2022/06/27 12:23:30;;;;;;;8.10;5.82;;;20.00;99.90;;;;;;6181356;23;20024;-74
2022/06/27 12:25:56;;;;;;;10.90;6.57;;;19.90;99.90;;;;;;6209159;23;20414;-75
2022/06/27 12:28:24;;;;;;;9.20;6.90;;;20.00;99.90;;;;;;6181468;23;20095;-74
2022/06/27 12:30:50;;;;;;;7.55;6.22;;;20.00;99.90;;;;;;6209337;23;20025;-74
2022/06/27 12:33:16;;;;;;;7.75;6.28;;;20.00;99.90;;;;;;6182106;23;20028;-75
2022/06/27 12:35:41;;;;;;;7.57;6.40;;;20.00;99.90;;;;;;6208231;23;20024;-74
2022/06/27 12:38:08;;;;;;;11.07;6.75;;;20.10;99.90;;;;;;6207336;23;20032;-74
2022/06/27 12:40:35;;;;;;;8.77;6.53;;;20.00;99.90;;;;;;6182304;23;20013;-74
2022/06/27 12:43:01;;;;;;;9.60;6.38;;;20.10;99.90;;;;;;6178822;23;20027;-74
2022/06/27 12:45:27;;;;;;;11.35;6.68;;;20.10;99.90;;;;;;6182179;23;20009;-74
2022/06/27 12:47:52;;;;;;;6.47;5.60;;;20.10;99.90;;;;;;6205817;23;20017;-74
2022/06/27 12:50:18;;;;;;;7.72;6.50;;;20.10;99.90;;;;;;6181515;23;20353;-74
2022/06/27 12:52:44;;;;;;;8.40;7.45;;;20.20;99.90;;;;;;6208924;23;20333;-74
2022/06/27 12:55:10;;;;;;;8.90;7.00;;;20.20;99.90;;;;;;6182442;23;20333;-74
2022/06/27 12:57:36;;;;;;;7.35;6.35;;;20.30;99.90;;;;;;6206655;23;20052;-74
2022/06/27 13:00:04;;;;;;;9.95;7.32;;;20.30;99.90;;;;;;6209075;23;20082;-74